createdAt,value
2018-08-24T00:00:35.070Z,22.75
2018-08-24T00:01:35.038Z,22.74
2018-08-24T00:02:35.245Z,22.74
2018-08-24T00:03:35.007Z,22.74
2018-08-24T00:04:35.066Z,22.74
2018-08-24T00:05:35.131Z,22.76
2018-08-24T00:06:35.035Z,22.74
2018-08-24T00:07:35.058Z,22.74
2018-08-24T00:08:35.327Z,22.71
2018-08-24T00:09:35.124Z,22.68
2018-08-24T00:10:35.161Z,22.67
2018-08-24T00:11:35.125Z,22.63
2018-08-24T00:12:35.019Z,22.63
2018-08-24T00:13:35.033Z,22.61
2018-08-24T00:14:35.084Z,22.58
2018-08-24T00:15:35.167Z,22.53
2018-08-24T00:16:35.115Z,22.51
2018-08-24T00:17:35.059Z,22.5
2018-08-24T00:18:35.030Z,22.47
2018-08-24T00:19:35.027Z,22.46
2018-08-24T00:20:35.081Z,22.47
2018-08-24T00:21:35.295Z,22.48
2018-08-24T00:22:35.114Z,22.5
2018-08-24T00:23:35.209Z,22.5
2018-08-24T00:24:35.031Z,22.5
2018-08-24T00:25:35.051Z,22.51
2018-08-24T00:26:35.037Z,22.5
2018-08-24T00:27:35.025Z,22.48
2018-08-24T00:28:35.429Z,22.5
2018-08-24T00:29:35.036Z,22.47
2018-08-24T00:30:35.131Z,22.41
2018-08-24T00:31:35.404Z,22.41
2018-08-24T00:32:35.155Z,22.41
2018-08-24T00:33:35.128Z,22.41
2018-08-24T00:34:35.057Z,22.46
2018-08-24T00:35:35.070Z,22.46
2018-08-24T00:36:35.251Z,22.47
2018-08-24T00:37:35.179Z,22.46
2018-08-24T00:38:35.065Z,22.47
2018-08-24T00:39:35.152Z,22.47
2018-08-24T00:40:35.252Z,22.44
2018-08-24T00:41:36.939Z,22.44
2018-08-24T00:42:35.270Z,22.44
2018-08-24T00:43:35.059Z,22.46
2018-08-24T00:44:35.060Z,22.44
2018-08-24T00:45:35.045Z,22.44
2018-08-24T00:46:35.329Z,22.47
2018-08-24T00:47:35.157Z,22.48
2018-08-24T00:48:35.592Z,22.48
2018-08-24T00:49:35.094Z,22.5
2018-08-24T00:50:35.228Z,22.5
2018-08-24T00:51:35.231Z,22.5
2018-08-24T00:52:35.088Z,22.48
2018-08-24T00:53:35.170Z,22.51
2018-08-24T00:54:35.193Z,22.46
2018-08-24T00:55:35.184Z,22.48
2018-08-24T00:56:35.086Z,22.5
2018-08-24T00:57:35.140Z,22.47
2018-08-24T00:58:35.246Z,22.47
2018-08-24T00:59:35.085Z,22.47
2018-08-24T01:00:35.293Z,22.48
2018-08-24T01:01:35.095Z,22.5
2018-08-24T01:02:35.131Z,22.48
2018-08-24T01:03:35.106Z,22.46
2018-08-24T01:04:35.204Z,22.48
2018-08-24T01:05:35.217Z,22.44
2018-08-24T01:06:35.124Z,22.4
2018-08-24T01:07:35.276Z,22.4
2018-08-24T01:08:35.375Z,22.39
2018-08-24T01:09:35.317Z,22.39
2018-08-24T01:10:35.140Z,22.37
2018-08-24T01:11:35.405Z,22.37
2018-08-24T01:12:35.134Z,22.39
2018-08-24T01:13:35.261Z,22.39
2018-08-24T01:14:35.169Z,22.36
2018-08-24T01:15:35.225Z,22.37
2018-08-24T01:16:35.262Z,22.36
2018-08-24T01:17:35.124Z,22.37
2018-08-24T01:18:35.093Z,22.39
2018-08-24T01:19:35.143Z,22.34
2018-08-24T01:20:35.133Z,22.4
2018-08-24T01:21:35.147Z,22.39
2018-08-24T01:22:35.132Z,22.37
2018-08-24T01:23:35.147Z,22.37
2018-08-24T01:24:35.112Z,22.37
2018-08-24T01:25:35.125Z,22.4
2018-08-24T01:26:35.146Z,22.39
2018-08-24T01:27:35.095Z,22.37
2018-08-24T01:28:35.102Z,22.39
2018-08-24T01:29:35.248Z,22.36
2018-08-24T01:30:35.114Z,22.36
2018-08-24T01:31:35.155Z,22.36
2018-08-24T01:32:35.129Z,22.34
2018-08-24T01:33:35.152Z,22.36
2018-08-24T01:34:35.122Z,22.34
2018-08-24T01:35:35.142Z,22.33
2018-08-24T01:36:35.424Z,22.3
2018-08-24T01:37:35.138Z,22.31
2018-08-24T01:38:35.147Z,22.31
2018-08-24T01:39:35.111Z,22.29
2018-08-24T01:40:35.261Z,22.2
2018-08-24T01:41:35.127Z,22.22
2018-08-24T01:42:35.121Z,22.23
2018-08-24T01:43:35.148Z,22.23
2018-08-24T01:44:35.623Z,22.23
2018-08-24T01:45:35.318Z,22.23
2018-08-24T01:46:35.151Z,22.22
2018-08-24T01:47:35.213Z,22.22
2018-08-24T01:48:35.241Z,22.17
2018-08-24T01:49:35.132Z,22.17
2018-08-24T01:50:35.238Z,22.16
2018-08-24T01:51:35.382Z,22.16
2018-08-24T01:52:35.272Z,22.16
2018-08-24T01:53:35.154Z,22.15
2018-08-24T01:54:35.199Z,22.11
2018-08-24T01:55:35.304Z,22.05
2018-08-24T01:56:35.320Z,22.08
2018-08-24T01:57:35.166Z,22.06
2018-08-24T01:58:35.200Z,22.09
2018-08-24T01:59:35.193Z,22.09
2018-08-24T02:00:35.255Z,22.06
2018-08-24T02:01:35.178Z,22.06
2018-08-24T02:02:35.229Z,22.08
2018-08-24T02:03:35.175Z,22.08
2018-08-24T02:04:35.565Z,22.06
2018-08-24T02:05:35.222Z,22.08
2018-08-24T02:06:35.214Z,22.06
2018-08-24T02:07:35.181Z,22.06
2018-08-24T02:08:35.328Z,22.06
2018-08-24T02:09:35.278Z,22.05
2018-08-24T02:10:35.250Z,22.02
2018-08-24T02:11:35.305Z,21.99
2018-08-24T02:12:35.177Z,21.94
2018-08-24T02:13:35.257Z,21.91
2018-08-24T02:14:35.599Z,21.88
2018-08-24T02:15:35.361Z,21.84
2018-08-24T02:16:35.305Z,21.82
2018-08-24T02:17:35.204Z,21.84
2018-08-24T02:18:35.160Z,21.82
2018-08-24T02:19:35.190Z,21.85
2018-08-24T02:20:35.205Z,21.88
2018-08-24T02:21:35.280Z,21.85
2018-08-24T02:22:35.534Z,21.85
2018-08-24T02:23:35.268Z,21.85
2018-08-24T02:24:35.285Z,21.85
2018-08-24T02:25:35.354Z,21.85
2018-08-24T02:26:35.302Z,21.86
2018-08-24T02:27:35.354Z,21.88
2018-08-24T02:28:35.204Z,21.89
2018-08-24T02:29:35.334Z,21.89
2018-08-24T02:30:35.270Z,21.88
2018-08-24T02:31:35.465Z,21.84
2018-08-24T02:32:35.233Z,21.85
2018-08-24T02:33:35.263Z,21.85
2018-08-24T02:34:35.299Z,21.85
2018-08-24T02:35:35.321Z,21.86
2018-08-24T02:36:35.350Z,21.85
2018-08-24T02:37:35.476Z,21.86
2018-08-24T02:38:35.334Z,21.86
2018-08-24T02:39:35.270Z,21.86
2018-08-24T02:40:35.287Z,21.82
2018-08-24T02:41:35.296Z,21.81
2018-08-24T02:42:35.414Z,21.79
2018-08-24T02:43:35.470Z,21.79
2018-08-24T02:44:35.355Z,21.79
2018-08-24T02:45:35.356Z,21.79
2018-08-24T02:46:35.265Z,21.78
2018-08-24T02:47:35.387Z,21.77
2018-08-24T02:48:35.250Z,21.75
2018-08-24T02:49:35.328Z,21.72
2018-08-24T02:50:35.421Z,21.72
2018-08-24T02:51:35.320Z,21.72
2018-08-24T02:52:35.276Z,21.69
2018-08-24T02:53:35.582Z,21.71
2018-08-24T02:54:35.274Z,21.71
2018-08-24T02:55:35.343Z,21.71
2018-08-24T02:56:35.332Z,21.71
2018-08-24T02:57:35.244Z,21.72
2018-08-24T02:58:35.293Z,21.74
2018-08-24T02:59:35.290Z,21.72
2018-08-24T03:00:35.367Z,21.72
2018-08-24T03:01:35.237Z,21.71
2018-08-24T03:02:35.541Z,21.71
2018-08-24T03:03:35.258Z,21.69
2018-08-24T03:04:35.233Z,21.71
2018-08-24T03:05:36.191Z,21.67
2018-08-24T03:06:35.291Z,21.65
2018-08-24T03:07:35.320Z,21.67
2018-08-24T03:08:35.268Z,21.62
2018-08-24T03:09:35.268Z,21.61
2018-08-24T03:10:35.396Z,21.56
2018-08-24T03:11:35.304Z,21.56
2018-08-24T03:12:35.247Z,21.56
2018-08-24T03:13:35.375Z,21.6
2018-08-24T03:14:35.316Z,21.6
2018-08-24T03:15:35.327Z,21.6
2018-08-24T03:16:35.271Z,21.58
2018-08-24T03:17:35.264Z,21.58
2018-08-24T03:18:35.252Z,21.58
2018-08-24T03:19:35.334Z,21.5
2018-08-24T03:20:35.347Z,21.5
2018-08-24T03:21:35.683Z,21.5
2018-08-24T03:22:35.274Z,21.44
2018-08-24T03:23:35.283Z,21.44
2018-08-24T03:24:35.313Z,21.32
2018-08-24T03:25:35.384Z,21.27
2018-08-24T03:26:35.314Z,21.26
2018-08-24T03:27:35.442Z,21.22
2018-08-24T03:28:35.277Z,21.22
2018-08-24T03:29:35.275Z,21.24
2018-08-24T03:30:35.324Z,21.27
2018-08-24T03:31:35.395Z,21.26
2018-08-24T03:32:35.416Z,21.24
2018-08-24T03:33:35.410Z,21.22
2018-08-24T03:34:35.559Z,21.23
2018-08-24T03:35:35.360Z,21.13
2018-08-24T03:36:35.383Z,21.12
2018-08-24T03:37:35.275Z,21.09
2018-08-24T03:38:35.305Z,21.12
2018-08-24T03:39:35.319Z,21.12
2018-08-24T03:40:35.353Z,21.12
2018-08-24T03:41:35.305Z,21.12
2018-08-24T03:42:35.282Z,21.09
2018-08-24T03:43:35.329Z,21.09
2018-08-24T03:44:35.341Z,21.09
2018-08-24T03:45:35.451Z,21.05
2018-08-24T03:46:35.445Z,21.07
2018-08-24T03:47:35.409Z,21.01
2018-08-24T03:48:35.410Z,21.02
2018-08-24T03:50:00.049Z,21.03
2018-08-24T03:50:35.409Z,21.07
2018-08-24T03:51:35.292Z,21.05
2018-08-24T03:52:35.362Z,21.06
2018-08-24T03:53:35.948Z,21.06
2018-08-24T03:54:41.446Z,21.06
2018-08-24T03:55:35.321Z,21.01
2018-08-24T03:56:35.406Z,20.98
2018-08-24T03:57:35.323Z,21.01
2018-08-24T03:58:38.773Z,20.99
2018-08-24T03:59:47.165Z,21.02
2018-08-24T04:00:35.355Z,21.02
2018-08-24T04:01:37.004Z,21.03
2018-08-24T04:02:35.473Z,21.06
2018-08-24T04:03:35.388Z,21.03
2018-08-24T04:04:35.304Z,21.07
2018-08-24T04:05:35.346Z,21.06
2018-08-24T04:06:35.433Z,21.03
2018-08-24T04:07:35.396Z,21.05
2018-08-24T04:08:36.848Z,21.05
2018-08-24T04:09:35.331Z,21.05
2018-08-24T04:10:35.457Z,21.05
2018-08-24T04:11:35.352Z,21.07
2018-08-24T04:12:35.392Z,21.06
2018-08-24T04:13:35.397Z,21.09
2018-08-24T04:14:35.368Z,21.09
2018-08-24T04:15:35.615Z,21.1
2018-08-24T04:16:35.408Z,21.09
2018-08-24T04:17:35.357Z,21.12
2018-08-24T04:18:35.316Z,21.1
2018-08-24T04:19:35.760Z,21.1
2018-08-24T04:20:35.322Z,21.09
2018-08-24T04:21:35.508Z,21.07
2018-08-24T04:22:35.659Z,21.09
2018-08-24T04:23:35.404Z,21.03
2018-08-24T04:24:35.539Z,21.02
2018-08-24T04:25:35.661Z,21.01
2018-08-24T04:26:36.027Z,21.03
2018-08-24T04:27:35.385Z,20.99
2018-08-24T04:28:35.587Z,20.92
2018-08-24T04:29:35.443Z,20.92
2018-08-24T04:30:35.416Z,20.89
2018-08-24T04:31:35.576Z,20.88
2018-08-24T04:32:35.429Z,20.91
2018-08-24T04:33:35.530Z,20.91
2018-08-24T04:34:36.709Z,20.85
2018-08-24T04:35:35.521Z,20.88
2018-08-24T04:36:35.440Z,20.88
2018-08-24T04:37:35.395Z,20.87
2018-08-24T04:38:35.366Z,20.88
2018-08-24T04:39:35.543Z,20.88
2018-08-24T04:40:35.463Z,20.89
2018-08-24T04:41:35.720Z,20.88
2018-08-24T04:42:35.421Z,20.85
2018-08-24T04:43:35.377Z,20.89
2018-08-24T04:44:35.497Z,20.88
2018-08-24T04:45:35.929Z,20.84
2018-08-24T04:46:35.526Z,20.84
2018-08-24T04:47:35.425Z,20.85
2018-08-24T04:48:35.458Z,20.84
2018-08-24T04:49:36.016Z,20.82
2018-08-24T04:50:35.769Z,20.85
2018-08-24T04:51:37.490Z,20.88
2018-08-24T04:52:35.441Z,20.91
2018-08-24T04:53:35.380Z,20.92
2018-08-24T04:54:35.397Z,20.94
2018-08-24T04:55:35.589Z,20.96
2018-08-24T04:56:35.568Z,20.94
2018-08-24T04:57:35.568Z,20.98
2018-08-24T04:58:35.395Z,21.02
2018-08-24T04:59:35.465Z,21.03
2018-08-24T05:00:35.673Z,21.02
2018-08-24T05:01:35.460Z,21.02
2018-08-24T05:02:35.477Z,20.99
2018-08-24T05:03:35.541Z,20.99
2018-08-24T05:04:35.568Z,21.02
2018-08-24T05:05:36.433Z,21.02
2018-08-24T05:06:35.804Z,21.06
2018-08-24T05:07:35.549Z,21.05
2018-08-24T05:08:35.481Z,21.03
2018-08-24T05:09:35.537Z,21.02
2018-08-24T05:10:35.836Z,20.98
2018-08-24T05:11:35.700Z,20.92
2018-08-24T05:12:35.533Z,20.92
2018-08-24T05:13:35.700Z,20.88
2018-08-24T05:14:35.443Z,20.89
2018-08-24T05:15:35.596Z,20.79
2018-08-24T05:16:35.491Z,20.79
2018-08-24T05:17:35.438Z,20.81
2018-08-24T05:18:35.482Z,20.78
2018-08-24T05:19:35.461Z,20.81
2018-08-24T05:20:35.540Z,20.77
2018-08-24T05:21:35.452Z,20.68
2018-08-24T05:22:35.739Z,20.65
2018-08-24T05:23:35.461Z,20.67
2018-08-24T05:24:35.663Z,20.61
2018-08-24T05:25:36.093Z,20.62
2018-08-24T05:26:35.537Z,20.57
2018-08-24T05:27:35.398Z,20.57
2018-08-24T05:28:36.143Z,20.58
2018-08-24T05:29:35.482Z,20.6
2018-08-24T05:30:35.543Z,20.58
2018-08-24T05:31:35.521Z,20.61
2018-08-24T05:32:35.502Z,20.67
2018-08-24T05:33:36.343Z,20.72
2018-08-24T05:34:35.530Z,20.75
2018-08-24T05:35:35.795Z,20.78
2018-08-24T05:36:35.541Z,20.72
2018-08-24T05:37:35.465Z,20.75
2018-08-24T05:38:35.488Z,20.78
2018-08-24T05:39:35.479Z,20.82
2018-08-24T05:40:35.530Z,20.84
2018-08-24T05:41:35.908Z,20.81
2018-08-24T05:42:35.510Z,20.85
2018-08-24T05:43:35.441Z,20.84
2018-08-24T05:44:35.532Z,20.85
2018-08-24T05:45:35.500Z,20.89
2018-08-24T05:46:35.557Z,20.92
2018-08-24T05:47:35.586Z,20.94
2018-08-24T05:48:35.530Z,20.96
2018-08-24T05:49:35.911Z,20.95
2018-08-24T05:50:35.490Z,20.92
2018-08-24T05:51:36.190Z,20.95
2018-08-24T05:52:36.267Z,20.89
2018-08-24T05:53:35.437Z,20.91
2018-08-24T05:54:35.572Z,20.85
2018-08-24T05:55:36.141Z,20.77
2018-08-24T05:56:35.487Z,20.75
2018-08-24T05:57:36.378Z,20.78
2018-08-24T05:58:35.511Z,20.7
2018-08-24T05:59:35.640Z,20.71
2018-08-24T06:00:35.530Z,20.67
2018-08-24T06:01:36.314Z,20.64
2018-08-24T06:02:35.658Z,20.62
2018-08-24T06:03:35.536Z,20.64
2018-08-24T06:04:35.577Z,20.65
2018-08-24T06:05:35.648Z,20.67
2018-08-24T06:06:35.526Z,20.65
2018-08-24T06:07:35.913Z,20.68
2018-08-24T06:08:35.588Z,20.68
2018-08-24T06:09:35.527Z,20.72
2018-08-24T06:10:35.558Z,20.75
2018-08-24T06:11:35.717Z,20.74
2018-08-24T06:12:35.604Z,20.74
2018-08-24T06:13:35.583Z,20.72
2018-08-24T06:14:35.480Z,20.67
2018-08-24T06:15:35.560Z,20.67
2018-08-24T06:16:35.630Z,20.68
2018-08-24T06:17:35.609Z,20.74
2018-08-24T06:18:35.540Z,20.65
2018-08-24T06:19:35.571Z,20.67
2018-08-24T06:20:35.686Z,20.67
2018-08-24T06:21:35.696Z,20.67
2018-08-24T06:22:35.699Z,20.65
2018-08-24T06:23:35.653Z,20.61
2018-08-24T06:24:35.989Z,20.61
2018-08-24T06:25:35.676Z,20.61
2018-08-24T06:26:35.616Z,20.57
2018-08-24T06:27:36.004Z,20.54
2018-08-24T06:28:35.625Z,20.57
2018-08-24T06:29:35.571Z,20.58
2018-08-24T06:30:35.576Z,20.6
2018-08-24T06:31:36.306Z,20.61
2018-08-24T06:32:35.562Z,20.6
2018-08-24T06:33:35.991Z,20.61
2018-08-24T06:34:35.526Z,20.64
2018-08-24T06:35:35.659Z,20.68
2018-08-24T06:36:35.521Z,20.7
2018-08-24T06:37:35.535Z,20.72
2018-08-24T06:38:35.596Z,20.72
2018-08-24T06:39:35.529Z,20.72
2018-08-24T06:40:35.605Z,20.78
2018-08-24T06:41:35.613Z,20.79
2018-08-24T06:42:35.519Z,20.74
2018-08-24T06:43:35.784Z,20.75
2018-08-24T06:44:36.653Z,20.74
2018-08-24T06:45:35.606Z,20.74
2018-08-24T06:46:35.675Z,20.75
2018-08-24T06:47:36.037Z,20.77
2018-08-24T06:48:36.230Z,20.72
2018-08-24T06:49:35.714Z,20.72
2018-08-24T06:50:35.650Z,20.65
2018-08-24T06:51:35.527Z,20.64
2018-08-24T06:52:36.320Z,20.68
2018-08-24T06:53:36.130Z,20.65
2018-08-24T06:54:35.537Z,20.7
2018-08-24T06:55:35.635Z,20.72
2018-08-24T06:56:35.551Z,20.72
2018-08-24T06:57:35.558Z,20.75
2018-08-24T06:58:35.566Z,20.72
2018-08-24T06:59:35.786Z,20.78
2018-08-24T07:00:35.663Z,20.78
2018-08-24T07:01:35.590Z,20.78
2018-08-24T07:02:35.790Z,20.84
2018-08-24T07:03:35.621Z,20.84
2018-08-24T07:04:35.653Z,20.82
2018-08-24T07:05:36.047Z,20.85
2018-08-24T07:06:35.558Z,20.79
2018-08-24T07:07:35.524Z,20.84
2018-08-24T07:08:35.543Z,20.87
2018-08-24T07:09:35.770Z,20.88
2018-08-24T07:10:35.757Z,20.94
2018-08-24T07:11:35.647Z,20.91
2018-08-24T07:12:35.737Z,20.85
2018-08-24T07:13:36.519Z,20.77
2018-08-24T07:14:36.565Z,20.89
2018-08-24T07:15:35.595Z,20.99
2018-08-24T07:16:35.570Z,20.99
2018-08-24T07:17:35.664Z,20.96
2018-08-24T07:18:35.623Z,20.91
2018-08-24T07:19:35.702Z,20.98
2018-08-24T07:20:35.605Z,21.07
2018-08-24T07:21:36.857Z,21.12
2018-08-24T07:22:35.649Z,21.12
2018-08-24T07:23:35.636Z,21.1
2018-08-24T07:24:35.636Z,21.17
2018-08-24T07:25:35.670Z,21.23
2018-08-24T07:26:36.187Z,21.3
2018-08-24T07:27:35.596Z,21.27
2018-08-24T07:28:35.567Z,21.32
2018-08-24T07:29:35.988Z,21.29
2018-08-24T07:30:36.178Z,21.33
2018-08-24T07:31:35.653Z,21.34
2018-08-24T07:32:36.109Z,21.39
2018-08-24T07:33:35.704Z,21.4
2018-08-24T07:34:36.263Z,21.44
2018-08-24T07:35:35.824Z,21.39
2018-08-24T07:36:35.616Z,21.3
2018-08-24T07:37:35.641Z,21.4
2018-08-24T07:38:36.013Z,21.44
2018-08-24T07:39:35.674Z,21.44
2018-08-24T07:40:35.607Z,21.46
2018-08-24T07:41:36.413Z,21.47
2018-08-24T07:42:35.573Z,21.54
2018-08-24T07:43:35.821Z,21.53
2018-08-24T07:44:35.591Z,21.57
2018-08-24T07:45:35.653Z,21.6
2018-08-24T07:46:35.683Z,21.54
2018-08-24T07:47:35.791Z,21.5
2018-08-24T07:48:35.593Z,21.53
2018-08-24T07:49:35.607Z,21.53
2018-08-24T07:50:35.616Z,21.54
2018-08-24T07:51:35.723Z,21.57
2018-08-24T07:52:35.700Z,21.6
2018-08-24T07:53:35.689Z,21.58
2018-08-24T07:54:35.620Z,21.47
2018-08-24T07:55:35.819Z,21.56
2018-08-24T07:56:35.610Z,21.57
2018-08-24T07:57:35.634Z,21.51
2018-08-24T07:58:35.825Z,21.51
2018-08-24T07:59:35.617Z,21.56
2018-08-24T08:00:35.611Z,21.58
2018-08-24T08:01:35.672Z,21.56
2018-08-24T08:02:35.710Z,21.46
2018-08-24T08:03:35.996Z,21.51
2018-08-24T08:04:35.824Z,21.49
2018-08-24T08:05:35.609Z,21.46
2018-08-24T08:06:35.665Z,21.41
2018-08-24T08:07:35.724Z,21.51
2018-08-24T08:08:35.779Z,21.54
2018-08-24T08:09:35.658Z,21.57
2018-08-24T08:10:35.621Z,21.54
2018-08-24T08:11:35.626Z,21.6
2018-08-24T08:12:36.222Z,21.53
2018-08-24T08:13:35.623Z,21.53
2018-08-24T08:14:35.624Z,21.56
2018-08-24T08:15:35.855Z,21.54
2018-08-24T08:16:35.618Z,21.56
2018-08-24T08:17:35.687Z,21.58
2018-08-24T08:18:35.821Z,21.51
2018-08-24T08:19:35.728Z,21.41
2018-08-24T08:20:35.631Z,21.34
2018-08-24T08:21:35.599Z,21.33
2018-08-24T08:22:35.629Z,21.34
2018-08-24T08:23:35.661Z,21.26
2018-08-24T08:24:35.717Z,21.27
2018-08-24T08:25:35.625Z,21.29
2018-08-24T08:26:35.633Z,21.33
2018-08-24T08:27:35.637Z,21.36
2018-08-24T08:28:35.699Z,21.37
2018-08-24T08:29:35.750Z,21.37
2018-08-24T08:30:36.265Z,21.39
2018-08-24T08:31:35.683Z,21.44
2018-08-24T08:32:35.630Z,21.44
2018-08-24T08:33:35.761Z,21.46
2018-08-24T08:34:35.932Z,21.46
2018-08-24T08:35:35.793Z,21.53
2018-08-24T08:36:35.656Z,21.51
2018-08-24T08:37:36.035Z,21.47
2018-08-24T08:38:36.034Z,21.5
2018-08-24T08:39:35.650Z,21.51
2018-08-24T08:40:35.807Z,21.46
2018-08-24T08:41:35.813Z,21.4
2018-08-24T08:42:35.782Z,21.39
2018-08-24T08:43:35.683Z,21.39
2018-08-24T08:44:35.746Z,21.4
2018-08-24T08:45:35.687Z,21.4
2018-08-24T08:46:35.807Z,21.4
2018-08-24T08:47:35.759Z,21.36
2018-08-24T08:48:35.708Z,21.27
2018-08-24T08:49:35.933Z,21.26
2018-08-24T08:50:36.004Z,21.24
2018-08-24T08:51:35.703Z,21.24
2018-08-24T08:52:35.755Z,21.26
2018-08-24T08:53:35.835Z,21.24
2018-08-24T08:54:35.774Z,21.17
2018-08-24T08:55:35.735Z,21.2
2018-08-24T08:56:35.693Z,21.16
2018-08-24T08:57:35.849Z,21.1
2018-08-24T08:58:36.042Z,21.13
2018-08-24T08:59:35.657Z,21.13
2018-08-24T09:00:35.750Z,21.09
2018-08-24T09:01:35.965Z,21.09
2018-08-24T09:02:36.094Z,21.09
2018-08-24T09:03:35.756Z,21.09
2018-08-24T09:04:36.495Z,21.02
2018-08-24T09:05:35.808Z,21.02
2018-08-24T09:06:35.781Z,21.02
2018-08-24T09:07:36.037Z,20.91
2018-08-24T09:08:35.812Z,20.88
2018-08-24T09:09:35.876Z,20.91
2018-08-24T09:10:35.880Z,20.92
2018-08-24T09:11:36.039Z,20.89
2018-08-24T09:12:35.747Z,20.84
2018-08-24T09:13:36.014Z,20.75
2018-08-24T09:14:36.057Z,20.81
2018-08-24T09:15:35.862Z,20.7
2018-08-24T09:16:35.722Z,20.71
2018-08-24T09:17:35.712Z,20.72
2018-08-24T09:18:36.044Z,20.72
2018-08-24T09:19:35.748Z,20.7
2018-08-24T09:20:35.763Z,20.77
2018-08-24T09:21:35.729Z,20.74
2018-08-24T09:22:36.234Z,20.75
2018-08-24T09:23:35.778Z,20.54
2018-08-24T09:24:35.860Z,20.3
2018-08-24T09:25:36.253Z,20.23
2018-08-24T09:26:35.750Z,20.01
2018-08-24T09:27:35.833Z,19.99
2018-08-24T09:28:35.988Z,20.05
2018-08-24T09:29:35.716Z,19.99
2018-08-24T09:30:35.730Z,19.84
2018-08-24T09:31:35.834Z,19.85
2018-08-24T09:32:36.455Z,19.85
2018-08-24T09:33:35.708Z,19.82
2018-08-24T09:34:35.957Z,19.74
2018-08-24T09:35:35.727Z,19.57
2018-08-24T09:36:35.784Z,19.51
2018-08-24T09:37:35.755Z,19.36
2018-08-24T09:38:35.835Z,19.34
2018-08-24T09:39:35.749Z,19.08
2018-08-24T09:40:35.839Z,18.64
2018-08-24T09:41:35.739Z,18.27
2018-08-24T09:42:36.070Z,17.98
2018-08-24T09:43:35.724Z,17.66
2018-08-24T09:44:35.877Z,17.73
2018-08-24T09:45:35.865Z,17.69
2018-08-24T09:46:35.854Z,17.71
2018-08-24T09:47:35.809Z,17.67
2018-08-24T09:48:36.407Z,17.54
2018-08-24T09:49:35.843Z,17.57
2018-08-24T09:50:35.761Z,17.37
2018-08-24T09:51:35.850Z,17.27
2018-08-24T09:52:36.047Z,17.35
2018-08-24T09:53:36.145Z,17.25
2018-08-24T09:54:35.965Z,17.35
2018-08-24T09:55:35.786Z,17.37
2018-08-24T09:56:35.813Z,17.3
2018-08-24T09:57:35.801Z,17.42
2018-08-24T09:58:35.783Z,17.42
2018-08-24T09:59:35.766Z,17.46
2018-08-24T10:00:35.836Z,17.53
2018-08-24T10:01:36.222Z,17.64
2018-08-24T10:02:36.246Z,17.66
2018-08-24T10:03:35.842Z,17.71
2018-08-24T10:04:35.765Z,17.76
2018-08-24T10:05:36.065Z,17.71
2018-08-24T10:06:35.935Z,17.71
2018-08-24T10:07:35.990Z,17.63
2018-08-24T10:08:36.119Z,17.63
2018-08-24T10:09:35.953Z,17.7
2018-08-24T10:10:35.827Z,17.74
2018-08-24T10:11:36.025Z,17.8
2018-08-24T10:12:36.165Z,17.7
2018-08-24T10:13:35.798Z,17.67
2018-08-24T10:14:36.205Z,17.81
2018-08-24T10:16:36.013Z,17.82
2018-08-24T10:17:36.101Z,17.85
2018-08-24T10:18:35.897Z,17.85
2018-08-24T10:19:36.010Z,17.94
2018-08-24T10:20:36.943Z,17.94
2018-08-24T10:21:36.011Z,17.97
2018-08-24T10:22:36.026Z,17.84
2018-08-24T10:23:35.804Z,17.91
2018-08-24T10:24:35.934Z,18.05
2018-08-24T10:25:35.940Z,18.11
2018-08-24T10:26:36.046Z,18.11
2018-08-24T10:27:37.021Z,18.16
2018-08-24T10:28:35.816Z,17.95
2018-08-24T10:29:36.306Z,17.89
2018-08-24T10:30:35.972Z,18.01
2018-08-24T10:31:36.036Z,17.98
2018-08-24T10:32:35.807Z,17.87
2018-08-24T10:33:36.149Z,17.85
2018-08-24T10:34:35.944Z,17.98
2018-08-24T10:35:35.797Z,17.98
2018-08-24T10:36:36.044Z,18.02
2018-08-24T10:37:36.234Z,17.97
2018-08-24T10:38:36.136Z,17.82
2018-08-24T10:39:36.140Z,17.84
2018-08-24T10:40:35.943Z,17.85
2018-08-24T10:41:36.144Z,17.84
2018-08-24T10:42:36.575Z,17.76
2018-08-24T10:43:35.796Z,17.82
2018-08-24T10:44:36.178Z,17.91
2018-08-24T10:45:36.281Z,17.97
2018-08-24T10:46:35.976Z,17.97
2018-08-24T10:47:36.144Z,17.92
2018-08-24T10:48:36.200Z,17.91
2018-08-24T10:49:35.907Z,17.97
2018-08-24T10:50:36.017Z,17.99
2018-08-24T10:51:36.368Z,17.99
2018-08-24T10:52:36.031Z,18.02
2018-08-24T10:53:36.027Z,18.06
2018-08-24T10:54:35.946Z,18.05
2018-08-24T10:55:36.090Z,18.17
2018-08-24T10:56:35.969Z,18.2
2018-08-24T10:57:36.162Z,18.22
2018-08-24T10:58:35.966Z,18.25
2018-08-24T10:59:35.903Z,18.22
2018-08-24T11:00:35.978Z,18.29
2018-08-24T11:01:35.902Z,18.37
2018-08-24T11:02:35.835Z,18.32
2018-08-24T11:03:35.998Z,18.36
2018-08-24T11:04:35.904Z,18.37
2018-08-24T11:05:35.906Z,18.43
2018-08-24T11:06:36.017Z,18.42
2018-08-24T11:07:36.405Z,18.49
2018-08-24T11:08:35.916Z,18.5
2018-08-24T11:09:35.928Z,18.52
2018-08-24T11:10:36.144Z,18.52
2018-08-24T11:11:36.062Z,18.56
2018-08-24T11:12:35.951Z,18.57
2018-08-24T11:13:35.970Z,18.63
2018-08-24T11:14:35.870Z,18.68
2018-08-24T11:15:35.988Z,18.52
2018-08-24T11:16:37.192Z,18.53
2018-08-24T11:17:36.216Z,18.56
2018-08-24T11:18:35.998Z,18.57
2018-08-24T11:19:35.909Z,18.61
2018-08-24T11:20:36.005Z,18.64
2018-08-24T11:21:35.929Z,18.67
2018-08-24T11:22:36.343Z,18.66
2018-08-24T11:23:35.861Z,18.7
2018-08-24T11:24:37.263Z,18.75
2018-08-24T11:25:36.247Z,18.77
2018-08-24T11:26:35.935Z,18.8
2018-08-24T11:27:36.090Z,18.82
2018-08-24T11:28:36.415Z,18.85
2018-08-24T11:29:35.881Z,18.91
2018-08-24T11:30:36.100Z,18.91
2018-08-24T11:31:36.095Z,18.98
2018-08-24T11:32:36.206Z,19.01
2018-08-24T11:33:36.023Z,19.03
2018-08-24T11:34:36.006Z,19.02
2018-08-24T11:35:35.975Z,19.08
2018-08-24T11:36:37.047Z,19.05
2018-08-24T11:37:35.874Z,19.13
2018-08-24T11:38:36.005Z,19.12
2018-08-24T11:39:36.146Z,19.13
2018-08-24T11:40:36.049Z,19.15
2018-08-24T11:41:35.981Z,19.19
2018-08-24T11:42:36.482Z,19.21
2018-08-24T11:43:36.069Z,19.19
2018-08-24T11:44:35.976Z,19.21
2018-08-24T11:45:36.495Z,19.23
2018-08-24T11:46:36.033Z,19.26
2018-08-24T11:47:36.411Z,19.26
2018-08-24T11:48:36.121Z,19.29
2018-08-24T11:49:36.050Z,19.3
2018-08-24T11:50:36.272Z,19.32
2018-08-24T11:51:36.229Z,19.36
2018-08-24T11:52:35.951Z,19.34
2018-08-24T11:53:36.076Z,19.39
2018-08-24T11:54:36.689Z,19.39
2018-08-24T11:55:35.888Z,19.26
2018-08-24T11:56:36.113Z,19.26
2018-08-24T11:57:36.162Z,19.3
2018-08-24T11:58:35.997Z,19.32
2018-08-24T11:59:35.970Z,19.34
2018-08-24T12:00:36.088Z,19.36
2018-08-24T12:01:36.197Z,19.4
2018-08-24T12:02:36.000Z,19.43
2018-08-24T12:03:36.432Z,19.43
2018-08-24T12:04:36.006Z,19.39
2018-08-24T12:05:36.116Z,19.43
2018-08-24T12:06:36.020Z,19.4
2018-08-24T12:07:36.095Z,19.32
2018-08-24T12:08:35.983Z,19.34
2018-08-24T12:09:37.169Z,19.33
2018-08-24T12:10:37.082Z,19.33
2018-08-24T12:11:36.003Z,19.32
2018-08-24T12:12:36.404Z,19.23
2018-08-24T12:13:36.374Z,19.17
2018-08-24T12:14:36.171Z,19.21
2018-08-24T12:15:36.246Z,19.21
2018-08-24T12:16:35.979Z,19.21
2018-08-24T12:17:35.938Z,19.17
2018-08-24T12:18:36.302Z,19.13
2018-08-24T12:19:35.961Z,19.13
2018-08-24T12:20:36.006Z,19.1
2018-08-24T12:21:36.148Z,19.16
2018-08-24T12:22:36.007Z,19.22
2018-08-24T12:23:36.017Z,19.15
2018-08-24T12:24:36.481Z,19.21
2018-08-24T12:25:36.357Z,19.22
2018-08-24T12:26:36.544Z,19.25
2018-08-24T12:27:36.172Z,19.29
2018-08-24T12:28:36.185Z,19.36
2018-08-24T12:29:36.027Z,19.27
2018-08-24T12:30:36.087Z,19.29
2018-08-24T12:31:35.957Z,19.25
2018-08-24T12:32:35.945Z,19.25
2018-08-24T12:33:36.020Z,19.27
2018-08-24T12:34:36.245Z,19.25
2018-08-24T12:35:35.976Z,19.3
2018-08-24T12:36:36.249Z,19.33
2018-08-24T12:37:36.006Z,19.37
2018-08-24T12:38:36.099Z,19.44
2018-08-24T12:39:36.036Z,19.53
2018-08-24T12:40:36.303Z,19.58
2018-08-24T12:41:36.143Z,19.56
2018-08-24T12:42:37.203Z,19.44
2018-08-24T12:43:36.542Z,19.5
2018-08-24T12:44:35.952Z,19.57
2018-08-24T12:45:36.204Z,19.64
2018-08-24T12:46:36.097Z,19.68
2018-08-24T12:47:36.063Z,19.72
2018-08-24T12:48:36.623Z,19.78
2018-08-24T12:49:36.107Z,19.84
2018-08-24T12:50:35.980Z,19.91
2018-08-24T12:51:36.229Z,19.93
2018-08-24T12:52:36.161Z,19.98
2018-08-24T12:53:36.038Z,19.99
2018-08-24T12:54:38.325Z,20.04
2018-08-24T12:55:35.993Z,20.08